createdAt,value
2023-04-16T00:00:48.496Z,24.70
2023-04-16T00:05:09.652Z,20.60
2023-04-16T00:09:12.824Z,22.30
2023-04-16T00:13:16.635Z,23.00
2023-04-16T00:17:19.892Z,17.30
2023-04-16T00:21:23.271Z,20.50
2023-04-16T00:25:26.491Z,22.80
2023-04-16T00:29:31.246Z,19.30
2023-04-16T00:33:34.992Z,24.30
2023-04-16T00:37:38.909Z,25.40
2023-04-16T00:41:51.102Z,24.90
2023-04-16T00:45:57.301Z,17.10
2023-04-16T00:50:00.720Z,20.20
2023-04-16T00:54:04.622Z,24.20
2023-04-16T00:58:07.921Z,22.20
2023-04-16T01:02:11.244Z,19.10
2023-04-16T01:06:16.961Z,26.40
2023-04-16T01:10:20.300Z,23.70
2023-04-16T01:14:23.492Z,21.50
2023-04-16T01:18:27.228Z,20.40
2023-04-16T01:22:30.801Z,20.60
2023-04-16T01:26:35.151Z,24.60
2023-04-16T01:30:39.036Z,27.30
2023-04-16T01:34:42.759Z,20.00
2023-04-16T01:38:46.624Z,28.60
2023-04-16T01:42:51.815Z,33.30
2023-04-16T01:46:56.490Z,30.60
2023-04-16T01:51:00.781Z,20.30
2023-04-16T01:55:06.254Z,24.70
2023-04-16T01:59:10.583Z,21.80
2023-04-16T02:03:14.217Z,21.10
2023-04-16T02:07:17.998Z,24.70
2023-04-16T02:11:21.713Z,21.00
2023-04-16T02:15:25.533Z,20.50
2023-04-16T02:19:29.512Z,21.20
2023-04-16T02:23:34.170Z,24.90
2023-04-16T02:27:37.803Z,15.60
2023-04-16T02:31:42.693Z,24.10
2023-04-16T02:35:46.265Z,21.70
2023-04-16T02:39:50.169Z,17.80
2023-04-16T02:43:53.758Z,14.60
2023-04-16T02:47:57.990Z,19.10
2023-04-16T02:52:01.276Z,15.40
2023-04-16T02:56:05.402Z,20.80
2023-04-16T03:00:09.776Z,15.20
2023-04-16T03:04:13.590Z,16.80
2023-04-16T03:08:18.182Z,23.30
2023-04-16T03:12:22.269Z,23.90
2023-04-16T03:16:25.939Z,16.80
2023-04-16T03:20:29.277Z,16.90
2023-04-16T03:24:32.581Z,18.40
2023-04-16T03:28:36.017Z,19.70
2023-04-16T03:32:39.555Z,24.50
2023-04-16T03:36:42.978Z,28.30
2023-04-16T03:40:46.567Z,16.80
2023-04-16T03:44:50.671Z,22.40
2023-04-16T03:48:54.828Z,17.80
2023-04-16T03:52:58.816Z,17.00
2023-04-16T03:57:02.821Z,22.10
2023-04-16T04:01:06.579Z,20.60
2023-04-16T04:05:10.647Z,21.90
2023-04-16T04:09:16.712Z,30.20
2023-04-16T04:13:20.063Z,35.20
2023-04-16T04:17:23.480Z,16.10
2023-04-16T04:21:30.194Z,25.70
2023-04-16T04:25:33.744Z,18.80
2023-04-16T04:29:37.071Z,31.90
2023-04-16T04:33:40.588Z,22.80
2023-04-16T04:37:45.215Z,29.70
2023-04-16T04:41:49.134Z,52.20
2023-04-16T04:45:52.460Z,20.10
2023-04-16T04:49:55.749Z,23.80
2023-04-16T04:53:59.303Z,23.50
2023-04-16T04:58:04.064Z,24.50
2023-04-16T05:02:07.910Z,20.30
2023-04-16T05:06:11.471Z,29.20
2023-04-16T05:10:14.842Z,31.30
2023-04-16T05:14:18.113Z,18.20
2023-04-16T05:18:21.384Z,20.40
2023-04-16T05:22:24.659Z,17.90
2023-04-16T05:26:27.858Z,27.90
2023-04-16T05:30:31.256Z,21.20
2023-04-16T05:34:34.811Z,20.60
2023-04-16T05:38:38.312Z,24.00
2023-04-16T05:42:42.032Z,28.20
2023-04-16T05:46:45.989Z,30.90
2023-04-16T05:50:49.885Z,20.80
2023-04-16T05:54:54.386Z,18.80
2023-04-16T05:58:57.731Z,17.20
2023-04-16T06:03:01.364Z,23.10
2023-04-16T06:07:04.948Z,22.30
2023-04-16T06:11:08.520Z,19.50
2023-04-16T06:15:11.863Z,15.30
2023-04-16T06:19:15.496Z,22.00
2023-04-16T06:23:18.868Z,20.90
2023-04-16T06:27:23.563Z,20.90
2023-04-16T06:31:28.415Z,24.30
2023-04-16T06:35:31.974Z,24.70
2023-04-16T06:39:35.644Z,26.30
2023-04-16T06:43:39.819Z,17.40
2023-04-16T06:47:44.017Z,24.00
2023-04-16T07:08:29.169Z,20.30
2023-04-16T07:12:32.880Z,33.20
2023-04-16T07:16:37.260Z,33.70
2023-04-16T07:20:39.180Z,39.50
2023-04-16T07:24:40.953Z,46.00
2023-04-16T07:28:46.157Z,33.80
2023-04-16T07:32:47.983Z,32.30
2023-04-16T07:36:50.037Z,29.40
2023-04-16T07:40:54.982Z,42.40
2023-04-16T07:44:56.538Z,29.30
2023-04-16T07:49:02.198Z,24.70
2023-04-16T07:53:06.154Z,24.40
2023-04-16T07:57:07.887Z,24.40
2023-04-16T08:01:35.153Z,28.10
2023-04-16T08:05:36.918Z,27.00
2023-04-16T08:09:50.050Z,23.30
2023-04-16T08:13:51.823Z,26.50
2023-04-16T08:17:53.688Z,25.30
2023-04-16T08:22:18.091Z,39.80
2023-04-16T08:26:20.066Z,37.00
2023-04-16T08:30:21.634Z,43.90
2023-04-16T08:34:23.445Z,46.30
2023-04-16T08:38:27.211Z,44.50
2023-04-16T08:42:32.371Z,38.30
2023-04-16T08:46:38.122Z,50.00
2023-04-16T08:50:41.034Z,46.80
2023-04-16T08:55:00.197Z,42.40
2023-04-16T08:59:05.238Z,39.50
2023-04-16T09:03:09.485Z,38.40
2023-04-16T09:07:11.846Z,39.40
2023-04-16T09:11:13.970Z,35.00
2023-04-16T09:16:12.242Z,41.30
2023-04-16T09:20:15.638Z,40.40
2023-04-16T09:24:22.094Z,39.00
2023-04-16T09:33:26.104Z,42.90
2023-04-16T09:37:56.719Z,49.80
2023-04-16T09:41:58.890Z,36.10
2023-04-16T09:46:08.092Z,37.60
2023-04-16T09:50:18.196Z,33.40
2023-04-16T09:54:53.075Z,35.20
2023-04-16T09:59:01.908Z,30.70
2023-04-16T10:03:06.748Z,38.50
2023-04-16T10:07:09.028Z,29.10
2023-04-16T10:11:11.720Z,33.70
2023-04-16T10:15:13.509Z,39.20
2023-04-16T10:19:17.310Z,29.00
2023-04-16T10:23:23.390Z,30.80
2023-04-16T10:31:40.735Z,20.90
2023-04-16T10:35:46.841Z,19.60
2023-04-16T10:39:58.427Z,20.00
2023-04-16T10:44:10.731Z,20.60
2023-04-16T10:48:14.843Z,24.80
2023-04-16T10:52:16.821Z,16.40
2023-04-16T10:56:27.278Z,21.60
2023-04-16T11:00:29.077Z,17.10
2023-04-16T11:04:36.877Z,13.10
2023-04-16T11:08:53.280Z,11.60
2023-04-16T11:12:58.358Z,12.30
2023-04-16T11:17:03.587Z,7.50
2023-04-16T11:21:14.869Z,13.90
2023-04-16T11:25:30.940Z,11.40
2023-04-16T11:29:32.691Z,14.30
2023-04-16T11:33:34.198Z,11.00
2023-04-16T11:37:38.129Z,14.20
2023-04-16T11:41:50.439Z,14.50
2023-04-16T11:46:24.114Z,10.80
2023-04-16T11:54:50.984Z,9.30
2023-04-16T12:21:50.965Z,6.70
